sensor_id;sensor_type;location;lat;lon;timestamp;P1;durP1;ratioP1;P2;durP2;ratioP2
47958;SDS011;33718;50.910;-1.514;2022-12-10T00:01:38;11.77;;;8.20;;
47958;SDS011;33718;50.910;-1.514;2022-12-10T00:03:43;12.73;;;8.73;;
47958;SDS011;33718;50.910;-1.514;2022-12-10T00:05:48;10.13;;;7.20;;
47958;SDS011;33718;50.910;-1.514;2022-12-10T00:07:50;8.23;;;6.72;;
47958;SDS011;33718;50.910;-1.514;2022-12-10T00:09:51;13.13;;;9.18;;
47958;SDS011;33718;50.910;-1.514;2022-12-10T00:11:53;13.10;;;8.52;;
47958;SDS011;33718;50.910;-1.514;2022-12-10T00:13:58;9.95;;;7.90;;
47958;SDS011;33718;50.910;-1.514;2022-12-10T00:16:07;13.02;;;10.38;;
47958;SDS011;33718;50.910;-1.514;2022-12-10T00:18:21;11.43;;;10.10;;
47958;SDS011;33718;50.910;-1.514;2022-12-10T00:20:36;15.05;;;8.77;;
47958;SDS011;33718;50.910;-1.514;2022-12-10T00:22:54;13.88;;;9.02;;
47958;SDS011;33718;50.910;-1.514;2022-12-10T00:25:05;16.23;;;8.95;;
47958;SDS011;33718;50.910;-1.514;2022-12-10T00:27:17;14.85;;;9.70;;
47958;SDS011;33718;50.910;-1.514;2022-12-10T00:31:51;12.18;;;7.68;;
47958;SDS011;33718;50.910;-1.514;2022-12-10T00:34:00;14.77;;;8.82;;
47958;SDS011;33718;50.910;-1.514;2022-12-10T00:36:10;13.63;;;9.55;;
47958;SDS011;33718;50.910;-1.514;2022-12-10T00:38:21;15.13;;;8.75;;
47958;SDS011;33718;50.910;-1.514;2022-12-10T00:40:31;10.02;;;6.97;;
47958;SDS011;33718;50.910;-1.514;2022-12-10T00:42:45;14.23;;;8.63;;
47958;SDS011;33718;50.910;-1.514;2022-12-10T00:45:00;11.40;;;8.48;;
47958;SDS011;33718;50.910;-1.514;2022-12-10T00:47:12;16.92;;;9.98;;
47958;SDS011;33718;50.910;-1.514;2022-12-10T00:49:14;14.82;;;9.82;;
47958;SDS011;33718;50.910;-1.514;2022-12-10T00:51:21;12.95;;;8.48;;
47958;SDS011;33718;50.910;-1.514;2022-12-10T00:53:26;11.77;;;8.18;;
47958;SDS011;33718;50.910;-1.514;2022-12-10T00:55:27;13.27;;;9.82;;
47958;SDS011;33718;50.910;-1.514;2022-12-10T00:57:29;12.10;;;8.77;;
47958;SDS011;33718;50.910;-1.514;2022-12-10T00:59:30;11.73;;;7.68;;
47958;SDS011;33718;50.910;-1.514;2022-12-10T01:01:36;12.27;;;8.45;;
47958;SDS011;33718;50.910;-1.514;2022-12-10T01:03:42;13.85;;;9.18;;
47958;SDS011;33718;50.910;-1.514;2022-12-10T01:05:43;14.60;;;9.27;;
47958;SDS011;33718;50.910;-1.514;2022-12-10T01:07:45;11.15;;;8.10;;
47958;SDS011;33718;50.910;-1.514;2022-12-10T01:09:47;14.38;;;8.98;;
47958;SDS011;33718;50.910;-1.514;2022-12-10T01:11:49;13.90;;;9.32;;
47958;SDS011;33718;50.910;-1.514;2022-12-10T01:13:53;15.07;;;9.23;;
47958;SDS011;33718;50.910;-1.514;2022-12-10T01:15:59;18.70;;;11.20;;
47958;SDS011;33718;50.910;-1.514;2022-12-10T01:18:01;16.33;;;10.13;;
47958;SDS011;33718;50.910;-1.514;2022-12-10T01:20:02;15.18;;;10.20;;
47958;SDS011;33718;50.910;-1.514;2022-12-10T01:22:04;15.32;;;10.07;;
47958;SDS011;33718;50.910;-1.514;2022-12-10T01:24:08;19.58;;;10.43;;
47958;SDS011;33718;50.910;-1.514;2022-12-10T01:26:11;18.52;;;10.35;;
47958;SDS011;33718;50.910;-1.514;2022-12-10T01:28:13;15.93;;;9.18;;
47958;SDS011;33718;50.910;-1.514;2022-12-10T01:32:21;18.27;;;9.45;;
47958;SDS011;33718;50.910;-1.514;2022-12-10T01:34:26;13.15;;;8.07;;
47958;SDS011;33718;50.910;-1.514;2022-12-10T01:36:29;13.15;;;7.00;;
47958;SDS011;33718;50.910;-1.514;2022-12-10T01:38:31;20.40;;;9.80;;
47958;SDS011;33718;50.910;-1.514;2022-12-10T01:40:36;19.02;;;10.57;;
47958;SDS011;33718;50.910;-1.514;2022-12-10T01:42:41;15.90;;;9.38;;
47958;SDS011;33718;50.910;-1.514;2022-12-10T01:46:53;22.02;;;12.73;;
47958;SDS011;33718;50.910;-1.514;2022-12-10T01:48:56;20.93;;;12.47;;
47958;SDS011;33718;50.910;-1.514;2022-12-10T01:51:01;15.13;;;8.80;;
47958;SDS011;33718;50.910;-1.514;2022-12-10T01:53:02;20.38;;;11.77;;
47958;SDS011;33718;50.910;-1.514;2022-12-10T01:55:06;18.35;;;10.30;;
47958;SDS011;33718;50.910;-1.514;2022-12-10T01:57:09;18.35;;;10.85;;
47958;SDS011;33718;50.910;-1.514;2022-12-10T01:59:15;19.65;;;10.40;;
47958;SDS011;33718;50.910;-1.514;2022-12-10T02:03:35;20.55;;;11.88;;
47958;SDS011;33718;50.910;-1.514;2022-12-10T02:05:44;21.52;;;12.02;;
47958;SDS011;33718;50.910;-1.514;2022-12-10T02:08:05;26.67;;;13.00;;
47958;SDS011;33718;50.910;-1.514;2022-12-10T02:14:52;19.83;;;10.40;;
47958;SDS011;33718;50.910;-1.514;2022-12-10T02:17:14;19.35;;;10.32;;
47958;SDS011;33718;50.910;-1.514;2022-12-10T02:19:22;22.58;;;12.05;;
47958;SDS011;33718;50.910;-1.514;2022-12-10T02:21:32;18.52;;;10.40;;
47958;SDS011;33718;50.910;-1.514;2022-12-10T02:23:38;21.42;;;10.98;;
47958;SDS011;33718;50.910;-1.514;2022-12-10T02:25:46;19.55;;;10.75;;
47958;SDS011;33718;50.910;-1.514;2022-12-10T02:28:36;21.77;;;11.20;;
47958;SDS011;33718;50.910;-1.514;2022-12-10T02:30:14;25.50;;;11.55;;
47958;SDS011;33718;50.910;-1.514;2022-12-10T02:32:22;22.13;;;11.90;;
47958;SDS011;33718;50.910;-1.514;2022-12-10T02:34:28;19.67;;;12.23;;
47958;SDS011;33718;50.910;-1.514;2022-12-10T02:36:35;22.75;;;12.00;;
47958;SDS011;33718;50.910;-1.514;2022-12-10T02:38:41;19.10;;;10.43;;
47958;SDS011;33718;50.910;-1.514;2022-12-10T02:40:47;15.35;;;8.77;;
47958;SDS011;33718;50.910;-1.514;2022-12-10T02:42:52;16.08;;;8.35;;
47958;SDS011;33718;50.910;-1.514;2022-12-10T02:47:01;14.93;;;9.02;;
47958;SDS011;33718;50.910;-1.514;2022-12-10T02:49:06;19.15;;;9.50;;
47958;SDS011;33718;50.910;-1.514;2022-12-10T02:51:12;20.33;;;9.77;;
47958;SDS011;33718;50.910;-1.514;2022-12-10T02:53:13;17.08;;;9.88;;
47958;SDS011;33718;50.910;-1.514;2022-12-10T02:55:18;16.95;;;9.75;;
47958;SDS011;33718;50.910;-1.514;2022-12-10T03:01:38;13.82;;;9.50;;
47958;SDS011;33718;50.910;-1.514;2022-12-10T03:08:17;17.98;;;8.77;;
47958;SDS011;33718;50.910;-1.514;2022-12-10T03:12:41;15.48;;;9.40;;
47958;SDS011;33718;50.910;-1.514;2022-12-10T03:14:47;13.75;;;9.38;;
47958;SDS011;33718;50.910;-1.514;2022-12-10T03:16:54;12.10;;;8.00;;
47958;SDS011;33718;50.910;-1.514;2022-12-10T03:19:16;13.55;;;7.30;;
47958;SDS011;33718;50.910;-1.514;2022-12-10T03:21:26;14.48;;;9.50;;
47958;SDS011;33718;50.910;-1.514;2022-12-10T03:23:45;14.02;;;8.20;;
47958;SDS011;33718;50.910;-1.514;2022-12-10T03:26:01;15.00;;;8.80;;
47958;SDS011;33718;50.910;-1.514;2022-12-10T03:28:18;13.90;;;8.18;;
47958;SDS011;33718;50.910;-1.514;2022-12-10T03:32:40;13.77;;;8.57;;
47958;SDS011;33718;50.910;-1.514;2022-12-10T03:34:57;12.95;;;9.05;;
47958;SDS011;33718;50.910;-1.514;2022-12-10T03:37:04;17.02;;;9.90;;
47958;SDS011;33718;50.910;-1.514;2022-12-10T03:39:18;12.38;;;8.65;;
47958;SDS011;33718;50.910;-1.514;2022-12-10T03:41:31;14.98;;;8.48;;
47958;SDS011;33718;50.910;-1.514;2022-12-10T03:43:51;14.15;;;9.35;;
47958;SDS011;33718;50.910;-1.514;2022-12-10T03:46:11;15.10;;;10.15;;
47958;SDS011;33718;50.910;-1.514;2022-12-10T03:48:24;16.88;;;10.30;;
47958;SDS011;33718;50.910;-1.514;2022-12-10T03:50:43;17.95;;;9.48;;
47958;SDS011;33718;50.910;-1.514;2022-12-10T03:52:53;21.83;;;10.32;;
47958;SDS011;33718;50.910;-1.514;2022-12-10T03:54:54;19.52;;;9.82;;
47958;SDS011;33718;50.910;-1.514;2022-12-10T03:56:56;15.70;;;9.68;;
47958;SDS011;33718;50.910;-1.514;2022-12-10T03:58:57;21.33;;;11.98;;
47958;SDS011;33718;50.910;-1.514;2022-12-10T04:01:02;19.30;;;9.80;;
47958;SDS011;33718;50.910;-1.514;2022-12-10T04:03:06;16.70;;;10.48;;
47958;SDS011;33718;50.910;-1.514;2022-12-10T04:05:11;14.20;;;8.43;;
47958;SDS011;33718;50.910;-1.514;2022-12-10T04:07:15;16.83;;;9.45;;
47958;SDS011;33718;50.910;-1.514;2022-12-10T04:09:17;17.05;;;11.05;;
47958;SDS011;33718;50.910;-1.514;2022-12-10T04:11:18;17.15;;;10.07;;
47958;SDS011;33718;50.910;-1.514;2022-12-10T04:13:20;16.50;;;8.98;;
47958;SDS011;33718;50.910;-1.514;2022-12-10T04:15:40;17.48;;;10.75;;
47958;SDS011;33718;50.910;-1.514;2022-12-10T04:17:59;19.15;;;10.63;;
47958;SDS011;33718;50.910;-1.514;2022-12-10T04:22:05;18.48;;;11.77;;
47958;SDS011;33718;50.910;-1.514;2022-12-10T04:24:29;15.70;;;9.55;;
47958;SDS011;33718;50.910;-1.514;2022-12-10T04:26:50;17.63;;;10.90;;
47958;SDS011;33718;50.910;-1.514;2022-12-10T04:28:57;16.30;;;10.00;;
47958;SDS011;33718;50.910;-1.514;2022-12-10T04:30:58;18.08;;;10.30;;
47958;SDS011;33718;50.910;-1.514;2022-12-10T04:33:00;15.90;;;8.95;;
47958;SDS011;33718;50.910;-1.514;2022-12-10T04:35:04;12.80;;;9.10;;
47958;SDS011;33718;50.910;-1.514;2022-12-10T04:37:06;14.95;;;9.50;;
47958;SDS011;33718;50.910;-1.514;2022-12-10T04:39:11;13.88;;;7.55;;
47958;SDS011;33718;50.910;-1.514;2022-12-10T04:41:13;15.13;;;8.18;;
47958;SDS011;33718;50.910;-1.514;2022-12-10T04:43:19;17.00;;;10.45;;
47958;SDS011;33718;50.910;-1.514;2022-12-10T04:45:21;15.82;;;9.60;;
47958;SDS011;33718;50.910;-1.514;2022-12-10T04:47:22;13.80;;;7.47;;
47958;SDS011;33718;50.910;-1.514;2022-12-10T04:49:24;15.40;;;8.70;;
47958;SDS011;33718;50.910;-1.514;2022-12-10T04:51:29;12.45;;;8.50;;
47958;SDS011;33718;50.910;-1.514;2022-12-10T04:53:33;15.77;;;8.13;;
47958;SDS011;33718;50.910;-1.514;2022-12-10T04:55:34;15.20;;;8.70;;
47958;SDS011;33718;50.910;-1.514;2022-12-10T04:57:36;15.98;;;8.57;;
47958;SDS011;33718;50.910;-1.514;2022-12-10T04:59:37;18.27;;;9.65;;
47958;SDS011;33718;50.910;-1.514;2022-12-10T05:03:43;16.13;;;9.18;;
47958;SDS011;33718;50.910;-1.514;2022-12-10T05:05:45;14.02;;;8.45;;
47958;SDS011;33718;50.910;-1.514;2022-12-10T05:07:49;15.68;;;8.35;;
47958;SDS011;33718;50.910;-1.514;2022-12-10T05:09:51;16.15;;;9.98;;
47958;SDS011;33718;50.910;-1.514;2022-12-10T05:11:52;13.77;;;9.77;;
47958;SDS011;33718;50.910;-1.514;2022-12-10T05:13:54;14.02;;;9.48;;
47958;SDS011;33718;50.910;-1.514;2022-12-10T05:15:56;12.70;;;8.68;;
47958;SDS011;33718;50.910;-1.514;2022-12-10T05:18:01;17.10;;;9.40;;
47958;SDS011;33718;50.910;-1.514;2022-12-10T05:20:02;16.13;;;9.80;;
47958;SDS011;33718;50.910;-1.514;2022-12-10T05:22:04;17.67;;;9.75;;
47958;SDS011;33718;50.910;-1.514;2022-12-10T05:24:24;15.10;;;8.90;;
47958;SDS011;33718;50.910;-1.514;2022-12-10T05:26:26;16.40;;;9.23;;
47958;SDS011;33718;50.910;-1.514;2022-12-10T05:28:28;13.55;;;9.00;;
47958;SDS011;33718;50.910;-1.514;2022-12-10T05:30:34;14.15;;;9.38;;
47958;SDS011;33718;50.910;-1.514;2022-12-10T05:32:36;14.10;;;9.25;;
47958;SDS011;33718;50.910;-1.514;2022-12-10T05:34:40;14.55;;;9.70;;
47958;SDS011;33718;50.910;-1.514;2022-12-10T05:36:41;18.35;;;9.50;;
47958;SDS011;33718;50.910;-1.514;2022-12-10T05:38:43;19.23;;;10.27;;
47958;SDS011;33718;50.910;-1.514;2022-12-10T05:40:45;17.63;;;9.65;;
47958;SDS011;33718;50.910;-1.514;2022-12-10T05:42:47;17.67;;;9.35;;
47958;SDS011;33718;50.910;-1.514;2022-12-10T05:46:58;15.25;;;9.45;;
47958;SDS011;33718;50.910;-1.514;2022-12-10T05:49:00;14.40;;;8.48;;
47958;SDS011;33718;50.910;-1.514;2022-12-10T05:51:05;13.85;;;9.02;;
47958;SDS011;33718;50.910;-1.514;2022-12-10T05:53:10;14.00;;;8.55;;
47958;SDS011;33718;50.910;-1.514;2022-12-10T05:55:17;14.55;;;7.95;;
47958;SDS011;33718;50.910;-1.514;2022-12-10T05:57:25;16.58;;;9.98;;
47958;SDS011;33718;50.910;-1.514;2022-12-10T05:59:27;19.35;;;10.98;;
47958;SDS011;33718;50.910;-1.514;2022-12-10T06:01:35;21.25;;;10.68;;
47958;SDS011;33718;50.910;-1.514;2022-12-10T06:03:39;24.77;;;12.18;;
47958;SDS011;33718;50.910;-1.514;2022-12-10T06:05:44;21.15;;;10.85;;
47958;SDS011;33718;50.910;-1.514;2022-12-10T06:07:46;28.45;;;13.73;;
47958;SDS011;33718;50.910;-1.514;2022-12-10T06:09:47;26.60;;;11.98;;
47958;SDS011;33718;50.910;-1.514;2022-12-10T06:11:49;31.13;;;15.93;;
47958;SDS011;33718;50.910;-1.514;2022-12-10T06:16:10;31.70;;;14.77;;
47958;SDS011;33718;50.910;-1.514;2022-12-10T06:18:11;23.90;;;12.30;;
47958;SDS011;33718;50.910;-1.514;2022-12-10T06:20:13;30.02;;;13.32;;
47958;SDS011;33718;50.910;-1.514;2022-12-10T06:22:17;24.77;;;13.25;;
47958;SDS011;33718;50.910;-1.514;2022-12-10T06:24:28;26.08;;;13.65;;
47958;SDS011;33718;50.910;-1.514;2022-12-10T06:26:33;33.63;;;16.58;;
47958;SDS011;33718;50.910;-1.514;2022-12-10T06:28:51;32.60;;;15.75;;
47958;SDS011;33718;50.910;-1.514;2022-12-10T06:31:09;28.58;;;14.77;;
47958;SDS011;33718;50.910;-1.514;2022-12-10T06:33:27;26.45;;;13.57;;
47958;SDS011;33718;50.910;-1.514;2022-12-10T06:35:48;28.13;;;16.17;;
47958;SDS011;33718;50.910;-1.514;2022-12-10T06:38:04;29.20;;;15.52;;
47958;SDS011;33718;50.910;-1.514;2022-12-10T06:40:18;41.85;;;17.58;;
47958;SDS011;33718;50.910;-1.514;2022-12-10T06:42:33;27.98;;;15.75;;
47958;SDS011;33718;50.910;-1.514;2022-12-10T06:44:39;34.67;;;16.98;;
47958;SDS011;33718;50.910;-1.514;2022-12-10T06:46:55;29.35;;;14.77;;
47958;SDS011;33718;50.910;-1.514;2022-12-10T06:49:13;34.92;;;17.50;;
47958;SDS011;33718;50.910;-1.514;2022-12-10T06:51:21;33.15;;;15.77;;
47958;SDS011;33718;50.910;-1.514;2022-12-10T06:53:40;29.90;;;15.90;;
47958;SDS011;33718;50.910;-1.514;2022-12-10T06:56:00;37.42;;;19.13;;
47958;SDS011;33718;50.910;-1.514;2022-12-10T06:58:14;43.80;;;20.55;;
47958;SDS011;33718;50.910;-1.514;2022-12-10T07:00:28;36.72;;;18.58;;
47958;SDS011;33718;50.910;-1.514;2022-12-10T07:02:39;37.72;;;17.58;;
47958;SDS011;33718;50.910;-1.514;2022-12-10T07:04:46;37.60;;;18.85;;
47958;SDS011;33718;50.910;-1.514;2022-12-10T07:06:51;29.98;;;14.88;;
47958;SDS011;33718;50.910;-1.514;2022-12-10T07:08:55;31.02;;;16.23;;
47958;SDS011;33718;50.910;-1.514;2022-12-10T07:11:03;29.27;;;13.93;;
47958;SDS011;33718;50.910;-1.514;2022-12-10T07:13:07;31.48;;;14.98;;
47958;SDS011;33718;50.910;-1.514;2022-12-10T07:15:08;29.25;;;15.82;;
47958;SDS011;33718;50.910;-1.514;2022-12-10T07:17:10;26.67;;;14.02;;
47958;SDS011;33718;50.910;-1.514;2022-12-10T07:19:12;29.55;;;15.23;;
47958;SDS011;33718;50.910;-1.514;2022-12-10T07:21:24;32.33;;;16.75;;
47958;SDS011;33718;50.910;-1.514;2022-12-10T07:23:29;26.17;;;14.32;;
47958;SDS011;33718;50.910;-1.514;2022-12-10T07:25:30;27.05;;;13.57;;
47958;SDS011;33718;50.910;-1.514;2022-12-10T07:27:35;29.23;;;14.65;;
47958;SDS011;33718;50.910;-1.514;2022-12-10T07:29:39;28.08;;;13.73;;
47958;SDS011;33718;50.910;-1.514;2022-12-10T07:31:43;31.05;;;13.43;;
47958;SDS011;33718;50.910;-1.514;2022-12-10T07:33:45;34.95;;;14.90;;
47958;SDS011;33718;50.910;-1.514;2022-12-10T07:35:46;32.08;;;16.10;;
47958;SDS011;33718;50.910;-1.514;2022-12-10T07:37:49;31.30;;;16.92;;
47958;SDS011;33718;50.910;-1.514;2022-12-10T07:39:51;36.50;;;16.58;;
47958;SDS011;33718;50.910;-1.514;2022-12-10T07:41:55;30.77;;;15.88;;
47958;SDS011;33718;50.910;-1.514;2022-12-10T07:44:00;33.50;;;18.27;;
47958;SDS011;33718;50.910;-1.514;2022-12-10T07:46:15;37.20;;;18.42;;
47958;SDS011;33718;50.910;-1.514;2022-12-10T07:48:17;33.95;;;17.17;;
47958;SDS011;33718;50.910;-1.514;2022-12-10T07:50:19;27.40;;;16.52;;
47958;SDS011;33718;50.910;-1.514;2022-12-10T07:52:21;39.20;;;19.58;;
47958;SDS011;33718;50.910;-1.514;2022-12-10T07:54:28;36.60;;;17.45;;
47958;SDS011;33718;50.910;-1.514;2022-12-10T07:56:30;35.83;;;17.98;;
47958;SDS011;33718;50.910;-1.514;2022-12-10T07:58:32;40.42;;;19.50;;
47958;SDS011;33718;50.910;-1.514;2022-12-10T08:00:33;39.63;;;17.85;;
47958;SDS011;33718;50.910;-1.514;2022-12-10T08:02:38;40.58;;;18.83;;
47958;SDS011;33718;50.910;-1.514;2022-12-10T08:04:40;37.05;;;17.92;;
47958;SDS011;33718;50.910;-1.514;2022-12-10T08:06:44;42.13;;;20.00;;
47958;SDS011;33718;50.910;-1.514;2022-12-10T08:08:46;40.97;;;19.77;;
47958;SDS011;33718;50.910;-1.514;2022-12-10T08:10:51;37.63;;;18.90;;
47958;SDS011;33718;50.910;-1.514;2022-12-10T08:12:55;41.03;;;21.55;;
47958;SDS011;33718;50.910;-1.514;2022-12-10T08:14:57;38.10;;;19.73;;
47958;SDS011;33718;50.910;-1.514;2022-12-10T08:16:59;44.17;;;20.80;;
47958;SDS011;33718;50.910;-1.514;2022-12-10T08:19:03;43.90;;;19.67;;
47958;SDS011;33718;50.910;-1.514;2022-12-10T08:21:06;37.08;;;18.63;;
47958;SDS011;33718;50.910;-1.514;2022-12-10T08:23:14;35.55;;;19.35;;
47958;SDS011;33718;50.910;-1.514;2022-12-10T08:25:18;34.67;;;18.65;;
47958;SDS011;33718;50.910;-1.514;2022-12-10T08:27:22;39.08;;;18.00;;
47958;SDS011;33718;50.910;-1.514;2022-12-10T08:29:24;33.25;;;16.60;;
47958;SDS011;33718;50.910;-1.514;2022-12-10T08:31:27;34.20;;;17.60;;
47958;SDS011;33718;50.910;-1.514;2022-12-10T08:33:42;31.27;;;16.02;;
47958;SDS011;33718;50.910;-1.514;2022-12-10T08:35:43;33.35;;;16.90;;
47958;SDS011;33718;50.910;-1.514;2022-12-10T08:37:45;32.55;;;15.90;;
47958;SDS011;33718;50.910;-1.514;2022-12-10T08:39:47;25.85;;;14.63;;
47958;SDS011;33718;50.910;-1.514;2022-12-10T08:41:49;31.95;;;16.58;;
47958;SDS011;33718;50.910;-1.514;2022-12-10T08:43:51;31.45;;;16.60;;
47958;SDS011;33718;50.910;-1.514;2022-12-10T08:45:57;26.42;;;14.15;;
47958;SDS011;33718;50.910;-1.514;2022-12-10T08:48:02;35.35;;;18.27;;
47958;SDS011;33718;50.910;-1.514;2022-12-10T08:50:04;38.17;;;19.77;;
47958;SDS011;33718;50.910;-1.514;2022-12-10T08:52:11;35.92;;;19.05;;
47958;SDS011;33718;50.910;-1.514;2022-12-10T08:54:13;36.88;;;18.92;;
47958;SDS011;33718;50.910;-1.514;2022-12-10T08:56:15;35.15;;;20.08;;
47958;SDS011;33718;50.910;-1.514;2022-12-10T08:58:17;35.90;;;19.10;;
47958;SDS011;33718;50.910;-1.514;2022-12-10T09:00:25;38.85;;;20.17;;
47958;SDS011;33718;50.910;-1.514;2022-12-10T09:02:30;30.20;;;17.75;;
47958;SDS011;33718;50.910;-1.514;2022-12-10T09:04:34;28.02;;;15.48;;
47958;SDS011;33718;50.910;-1.514;2022-12-10T09:06:39;29.00;;;15.15;;
47958;SDS011;33718;50.910;-1.514;2022-12-10T09:08:40;26.55;;;14.70;;
47958;SDS011;33718;50.910;-1.514;2022-12-10T09:10:45;28.88;;;16.63;;
47958;SDS011;33718;50.910;-1.514;2022-12-10T09:12:47;38.22;;;19.15;;
47958;SDS011;33718;50.910;-1.514;2022-12-10T09:14:48;29.77;;;16.52;;
47958;SDS011;33718;50.910;-1.514;2022-12-10T09:16:50;26.05;;;15.18;;
47958;SDS011;33718;50.910;-1.514;2022-12-10T09:18:53;30.30;;;15.63;;
47958;SDS011;33718;50.910;-1.514;2022-12-10T09:20:54;24.15;;;14.40;;
47958;SDS011;33718;50.910;-1.514;2022-12-10T09:22:56;27.75;;;17.17;;
47958;SDS011;33718;50.910;-1.514;2022-12-10T09:24:58;27.15;;;16.80;;
47958;SDS011;33718;50.910;-1.514;2022-12-10T09:27:02;31.20;;;16.77;;
47958;SDS011;33718;50.910;-1.514;2022-12-10T09:29:07;25.33;;;15.52;;
47958;SDS011;33718;50.910;-1.514;2022-12-10T09:31:13;27.65;;;16.15;;
47958;SDS011;33718;50.910;-1.514;2022-12-10T09:33:32;24.40;;;14.32;;
47958;SDS011;33718;50.910;-1.514;2022-12-10T09:35:55;24.13;;;14.02;;
47958;SDS011;33718;50.910;-1.514;2022-12-10T09:38:43;23.85;;;15.52;;
47958;SDS011;33718;50.910;-1.514;2022-12-10T09:41:02;29.23;;;16.67;;
47958;SDS011;33718;50.910;-1.514;2022-12-10T09:46:13;30.80;;;18.08;;
47958;SDS011;33718;50.910;-1.514;2022-12-10T09:48:54;26.35;;;15.75;;
47958;SDS011;33718;50.910;-1.514;2022-12-10T09:51:25;24.70;;;14.85;;
47958;SDS011;33718;50.910;-1.514;2022-12-10T09:53:47;22.08;;;14.15;;
47958;SDS011;33718;50.910;-1.514;2022-12-10T09:56:33;22.52;;;13.98;;
47958;SDS011;33718;50.910;-1.514;2022-12-10T09:59:22;21.83;;;13.68;;
47958;SDS011;33718;50.910;-1.514;2022-12-10T10:02:03;24.52;;;15.10;;
47958;SDS011;33718;50.910;-1.514;2022-12-10T10:04:20;21.48;;;12.50;;
47958;SDS011;33718;50.910;-1.514;2022-12-10T10:06:22;17.73;;;12.15;;
47958;SDS011;33718;50.910;-1.514;2022-12-10T10:10:33;15.70;;;11.45;;
47958;SDS011;33718;50.910;-1.514;2022-12-10T10:12:40;14.70;;;10.15;;
47958;SDS011;33718;50.910;-1.514;2022-12-10T10:14:42;15.68;;;9.85;;
47958;SDS011;33718;50.910;-1.514;2022-12-10T10:16:48;20.13;;;15.10;;
47958;SDS011;33718;50.910;-1.514;2022-12-10T10:18:56;18.08;;;13.20;;
47958;SDS011;33718;50.910;-1.514;2022-12-10T10:21:02;16.58;;;12.23;;
47958;SDS011;33718;50.910;-1.514;2022-12-10T10:23:08;20.10;;;13.07;;
47958;SDS011;33718;50.910;-1.514;2022-12-10T10:25:13;17.92;;;12.70;;
47958;SDS011;33718;50.910;-1.514;2022-12-10T10:27:20;24.25;;;15.60;;
47958;SDS011;33718;50.910;-1.514;2022-12-10T10:29:24;22.80;;;16.02;;
47958;SDS011;33718;50.910;-1.514;2022-12-10T10:31:28;21.85;;;16.50;;
47958;SDS011;33718;50.910;-1.514;2022-12-10T10:33:30;31.83;;;21.10;;
47958;SDS011;33718;50.910;-1.514;2022-12-10T10:35:33;29.95;;;20.73;;
47958;SDS011;33718;50.910;-1.514;2022-12-10T10:39:39;28.70;;;18.65;;
47958;SDS011;33718;50.910;-1.514;2022-12-10T10:41:52;23.27;;;16.70;;
47958;SDS011;33718;50.910;-1.514;2022-12-10T10:43:59;19.90;;;15.27;;
47958;SDS011;33718;50.910;-1.514;2022-12-10T10:46:13;20.33;;;14.10;;
47958;SDS011;33718;50.910;-1.514;2022-12-10T10:48:16;19.80;;;14.45;;
47958;SDS011;33718;50.910;-1.514;2022-12-10T10:50:23;18.38;;;13.20;;
47958;SDS011;33718;50.910;-1.514;2022-12-10T10:52:30;17.23;;;11.07;;
47958;SDS011;33718;50.910;-1.514;2022-12-10T10:56:42;16.63;;;13.20;;
47958;SDS011;33718;50.910;-1.514;2022-12-10T10:58:52;19.85;;;13.82;;
47958;SDS011;33718;50.910;-1.514;2022-12-10T11:03:02;17.73;;;13.25;;
47958;SDS011;33718;50.910;-1.514;2022-12-10T11:07:32;18.05;;;12.43;;
47958;SDS011;33718;50.910;-1.514;2022-12-10T11:09:34;12.75;;;10.15;;
47958;SDS011;33718;50.910;-1.514;2022-12-10T11:11:40;18.15;;;11.68;;
47958;SDS011;33718;50.910;-1.514;2022-12-10T11:13:47;14.05;;;10.80;;
47958;SDS011;33718;50.910;-1.514;2022-12-10T11:16:12;15.88;;;11.07;;
47958;SDS011;33718;50.910;-1.514;2022-12-10T11:18:25;16.48;;;12.18;;
47958;SDS011;33718;50.910;-1.514;2022-12-10T11:20:29;14.45;;;10.98;;
47958;SDS011;33718;50.910;-1.514;2022-12-10T11:22:32;12.13;;;9.82;;
47958;SDS011;33718;50.910;-1.514;2022-12-10T11:27:05;8.48;;;7.32;;
47958;SDS011;33718;50.910;-1.514;2022-12-10T11:29:17;12.40;;;9.20;;
47958;SDS011;33718;50.910;-1.514;2022-12-10T11:31:25;10.77;;;8.20;;
47958;SDS011;33718;50.910;-1.514;2022-12-10T11:33:34;11.32;;;8.63;;
47958;SDS011;33718;50.910;-1.514;2022-12-10T11:35:53;12.30;;;9.95;;
47958;SDS011;33718;50.910;-1.514;2022-12-10T11:38:13;13.18;;;9.40;;
47958;SDS011;33718;50.910;-1.514;2022-12-10T11:42:35;10.30;;;8.30;;
47958;SDS011;33718;50.910;-1.514;2022-12-10T11:44:54;9.35;;;7.65;;
47958;SDS011;33718;50.910;-1.514;2022-12-10T12:00:22;6.60;;;5.90;;
47958;SDS011;33718;50.910;-1.514;2022-12-10T12:02:34;6.47;;;5.82;;
47958;SDS011;33718;50.910;-1.514;2022-12-10T12:07:01;9.48;;;6.78;;
47958;SDS011;33718;50.910;-1.514;2022-12-10T12:13:35;6.68;;;5.90;;
47958;SDS011;33718;50.910;-1.514;2022-12-10T12:15:59;6.32;;;5.57;;
47958;SDS011;33718;50.910;-1.514;2022-12-10T12:20:23;7.45;;;6.05;;
47958;SDS011;33718;50.910;-1.514;2022-12-10T12:22:37;8.25;;;5.28;;
47958;SDS011;33718;50.910;-1.514;2022-12-10T12:24:40;7.05;;;5.38;;
47958;SDS011;33718;50.910;-1.514;2022-12-10T12:27:02;7.03;;;5.90;;
47958;SDS011;33718;50.910;-1.514;2022-12-10T12:29:15;5.55;;;4.90;;
47958;SDS011;33718;50.910;-1.514;2022-12-10T12:31:20;5.13;;;4.50;;
47958;SDS011;33718;50.910;-1.514;2022-12-10T12:33:29;4.10;;;3.70;;
47958;SDS011;33718;50.910;-1.514;2022-12-10T12:35:52;4.70;;;4.20;;
47958;SDS011;33718;50.910;-1.514;2022-12-10T12:38:19;4.13;;;3.72;;
47958;SDS011;33718;50.910;-1.514;2022-12-10T12:40:48;4.75;;;4.05;;
47958;SDS011;33718;50.910;-1.514;2022-12-10T12:43:08;4.53;;;4.13;;
47958;SDS011;33718;50.910;-1.514;2022-12-10T12:50:41;6.32;;;5.47;;
47958;SDS011;33718;50.910;-1.514;2022-12-10T12:52:58;6.13;;;5.53;;
47958;SDS011;33718;50.910;-1.514;2022-12-10T12:55:16;9.38;;;5.43;;
47958;SDS011;33718;50.910;-1.514;2022-12-10T12:57:33;7.70;;;5.80;;
47958;SDS011;33718;50.910;-1.514;2022-12-10T12:59:52;6.35;;;4.95;;
47958;SDS011;33718;50.910;-1.514;2022-12-10T13:02:33;5.20;;;4.65;;
47958;SDS011;33718;50.910;-1.514;2022-12-10T13:04:49;4.82;;;4.30;;
47958;SDS011;33718;50.910;-1.514;2022-12-10T13:09:51;4.63;;;3.60;;
47958;SDS011;33718;50.910;-1.514;2022-12-10T13:18:35;2.67;;;2.35;;
47958;SDS011;33718;50.910;-1.514;2022-12-10T13:20:41;3.08;;;2.17;;
47958;SDS011;33718;50.910;-1.514;2022-12-10T13:22:54;2.53;;;2.33;;
47958;SDS011;33718;50.910;-1.514;2022-12-10T13:25:22;2.42;;;2.08;;
47958;SDS011;33718;50.910;-1.514;2022-12-10T13:27:31;2.90;;;2.10;;
47958;SDS011;33718;50.910;-1.514;2022-12-10T13:31:54;2.65;;;2.10;;
47958;SDS011;33718;50.910;-1.514;2022-12-10T13:38:20;3.15;;;2.47;;
47958;SDS011;33718;50.910;-1.514;2022-12-10T13:45:50;1.75;;;1.65;;
47958;SDS011;33718;50.910;-1.514;2022-12-10T13:48:26;2.05;;;1.45;;
47958;SDS011;33718;50.910;-1.514;2022-12-10T14:03:27;1.20;;;1.10;;
47958;SDS011;33718;50.910;-1.514;2022-12-10T14:07:57;1.30;;;1.00;;
47958;SDS011;33718;50.910;-1.514;2022-12-10T14:10:04;0.82;;;0.75;;
47958;SDS011;33718;50.910;-1.514;2022-12-10T14:12:14;1.20;;;0.80;;
47958;SDS011;33718;50.910;-1.514;2022-12-10T14:14:30;0.93;;;0.90;;
47958;SDS011;33718;50.910;-1.514;2022-12-10T14:16:36;1.23;;;1.13;;
47958;SDS011;33718;50.910;-1.514;2022-12-10T14:18:41;0.68;;;0.65;;
47958;SDS011;33718;50.910;-1.514;2022-12-10T14:20:47;1.13;;;0.80;;
47958;SDS011;33718;50.910;-1.514;2022-12-10T14:22:51;0.40;;;0.40;;
47958;SDS011;33718;50.910;-1.514;2022-12-10T14:24:55;0.55;;;0.55;;